createdAt,value
2022-10-28T00:01:04.368Z,10.27
2022-10-28T00:03:06.707Z,11.40
2022-10-28T00:05:09.095Z,11.95
2022-10-28T00:07:11.254Z,11.98
2022-10-28T00:09:13.427Z,12.20
2022-10-28T00:11:18.267Z,10.65
2022-10-28T00:13:20.329Z,12.13
2022-10-28T00:15:22.344Z,11.32
2022-10-28T00:19:26.694Z,10.02
2022-10-28T00:21:31.915Z,10.82
2022-10-28T00:23:34.293Z,11.50
2022-10-28T00:25:36.528Z,11.48
2022-10-28T00:27:38.651Z,10.55
2022-10-28T00:29:40.778Z,11.52
2022-10-28T00:31:43.833Z,9.65
2022-10-28T00:37:40.971Z,11.05
2022-10-28T00:39:43.007Z,9.50
2022-10-28T00:41:51.335Z,11.27
2022-10-28T00:43:58.653Z,11.15
2022-10-28T00:46:01.430Z,10.32
2022-10-28T00:48:05.035Z,14.45
2022-10-28T00:50:28.254Z,12.23
2022-10-28T00:52:32.005Z,10.45
2022-10-28T00:54:35.754Z,9.32
2022-10-28T00:56:42.370Z,8.82
2022-10-28T00:58:48.267Z,11.95
2022-10-28T01:00:50.626Z,10.40
2022-10-28T01:02:52.936Z,11.38
2022-10-28T01:04:55.386Z,9.95
2022-10-28T01:07:00.155Z,8.68
2022-10-28T01:09:02.249Z,9.27
2022-10-28T01:11:13.792Z,8.35
2022-10-28T01:13:45.506Z,9.43
2022-10-28T01:16:22.092Z,8.65
2022-10-28T01:18:54.174Z,10.75
2022-10-28T01:21:37.353Z,8.70
2022-10-28T01:24:04.485Z,10.88
2022-10-28T01:26:36.833Z,9.32
2022-10-28T01:28:57.005Z,7.70
2022-10-28T01:31:26.690Z,9.10
2022-10-28T01:33:41.713Z,8.48
2022-10-28T01:35:52.472Z,9.07
2022-10-28T01:38:16.643Z,9.65
2022-10-28T01:40:31.762Z,6.95
2022-10-28T01:42:39.009Z,7.30
2022-10-28T01:45:21.594Z,10.05
2022-10-28T01:47:43.510Z,8.45
2022-10-28T01:49:55.016Z,9.95
2022-10-28T01:52:03.987Z,10.93
2022-10-28T01:54:12.520Z,7.68
2022-10-28T01:56:19.202Z,6.97
2022-10-28T01:58:28.906Z,14.13
2022-10-28T02:00:34.189Z,12.93
2022-10-28T02:02:38.822Z,7.65
2022-10-28T02:04:40.784Z,7.50
2022-10-28T02:06:47.838Z,9.75
2022-10-28T02:09:08.264Z,10.13
2022-10-28T02:11:22.585Z,11.63
2022-10-28T02:13:38.415Z,11.60
2022-10-28T02:16:18.667Z,10.15
2022-10-28T02:18:35.430Z,9.77
2022-10-28T02:20:53.407Z,6.63
2022-10-28T02:23:18.401Z,8.40
2022-10-28T02:25:25.555Z,8.50
2022-10-28T02:27:56.828Z,10.48
2022-10-28T02:30:24.399Z,7.57
2022-10-28T02:32:32.417Z,6.72
2022-10-28T02:34:40.530Z,8.27
2022-10-28T02:36:46.864Z,7.95
2022-10-28T02:38:59.224Z,7.95
2022-10-28T02:41:13.526Z,8.48
2022-10-28T02:43:17.945Z,9.07
2022-10-28T02:45:24.246Z,8.18
2022-10-28T02:47:32.115Z,6.90
2022-10-28T02:49:38.494Z,10.93
2022-10-28T02:51:52.435Z,7.93
2022-10-28T02:54:30.088Z,9.73
2022-10-28T02:56:37.661Z,9.80
2022-10-28T02:58:40.852Z,9.38
2022-10-28T03:00:47.430Z,10.15
2022-10-28T03:02:49.678Z,12.65
2022-10-28T03:04:51.753Z,10.30
2022-10-28T03:06:53.686Z,9.60
2022-10-28T03:08:58.522Z,7.88
2022-10-28T03:11:00.772Z,5.57
2022-10-28T03:13:03.087Z,8.40
2022-10-28T03:15:05.424Z,8.30
2022-10-28T03:17:07.941Z,13.80
2022-10-28T03:19:10.210Z,8.68
2022-10-28T03:21:12.444Z,7.55
2022-10-28T03:23:14.664Z,7.47
2022-10-28T03:25:17.068Z,7.85
2022-10-28T03:27:18.980Z,6.97
2022-10-28T03:29:21.414Z,5.63
2022-10-28T03:31:23.678Z,6.32
2022-10-28T03:33:25.716Z,8.38
2022-10-28T03:35:27.865Z,7.53
2022-10-28T03:37:29.931Z,8.00
2022-10-28T03:39:32.026Z,9.30
2022-10-28T03:41:34.088Z,5.18
2022-10-28T03:43:36.116Z,9.77
2022-10-28T03:45:38.288Z,15.95
2022-10-28T03:47:40.701Z,6.45
2022-10-28T03:49:42.938Z,6.63
2022-10-28T03:51:45.034Z,7.45
2022-10-28T03:53:47.448Z,6.00
2022-10-28T03:55:56.640Z,6.50
2022-10-28T03:58:01.249Z,7.35
2022-10-28T04:00:04.773Z,6.03
2022-10-28T04:02:15.852Z,7.00
2022-10-28T04:04:18.421Z,8.13
2022-10-28T04:06:20.468Z,11.20
2022-10-28T04:08:22.720Z,5.03
2022-10-28T04:10:24.666Z,7.68
2022-10-28T04:12:26.589Z,9.60
2022-10-28T04:14:28.539Z,7.65
2022-10-28T04:16:30.810Z,7.97
2022-10-28T04:18:32.955Z,8.73
2022-10-28T04:20:35.373Z,7.80
2022-10-28T04:22:37.811Z,10.13
2022-10-28T04:24:42.267Z,9.35
2022-10-28T04:26:44.413Z,7.32
2022-10-28T04:28:49.750Z,8.35
2022-10-28T04:30:51.987Z,6.45
2022-10-28T04:32:54.186Z,9.60
2022-10-28T04:34:56.248Z,7.75
2022-10-28T04:36:58.528Z,10.50
2022-10-28T04:39:00.491Z,6.93
2022-10-28T04:41:02.609Z,10.90
2022-10-28T04:43:08.452Z,11.43
2022-10-28T04:45:12.381Z,8.40
2022-10-28T04:47:14.582Z,7.40
2022-10-28T04:49:16.657Z,10.27
2022-10-28T04:51:18.736Z,7.38
2022-10-28T04:53:21.956Z,6.85
2022-10-28T04:55:27.308Z,5.93
2022-10-28T04:57:33.106Z,5.77
2022-10-28T04:59:35.351Z,6.47
2022-10-28T05:01:38.088Z,6.63
2022-10-28T05:03:40.201Z,8.95
2022-10-28T05:05:42.580Z,4.97
2022-10-28T05:08:09.871Z,6.57
2022-10-28T05:10:18.452Z,10.68
2022-10-28T05:12:20.474Z,9.65
2022-10-28T05:14:22.597Z,11.00
2022-10-28T05:16:24.618Z,13.02
2022-10-28T05:18:26.930Z,12.68
2022-10-28T05:20:29.274Z,12.30
2022-10-28T05:22:31.530Z,14.27
2022-10-28T05:24:35.654Z,12.32
2022-10-28T05:26:38.108Z,15.02
2022-10-28T05:28:40.275Z,12.13
2022-10-28T05:30:42.929Z,16.90
2022-10-28T05:32:45.315Z,23.33
2022-10-28T05:34:47.069Z,19.65
2022-10-28T05:36:50.920Z,21.13
2022-10-28T05:38:52.793Z,17.33
2022-10-28T05:40:54.982Z,16.47
2022-10-28T05:42:57.076Z,17.97
2022-10-28T05:44:58.932Z,20.30
2022-10-28T05:47:27.772Z,16.17
2022-10-28T05:49:29.796Z,16.88
2022-10-28T05:51:32.178Z,14.38
2022-10-28T05:53:34.131Z,14.98
2022-10-28T05:55:36.880Z,14.75
2022-10-28T05:57:40.014Z,17.27
2022-10-28T05:59:42.245Z,19.05
2022-10-28T06:01:44.325Z,15.68
2022-10-28T06:03:47.915Z,19.17
2022-10-28T06:05:50.162Z,19.02
2022-10-28T06:07:52.051Z,17.75
2022-10-28T06:09:53.857Z,20.65
2022-10-28T06:11:54.267Z,14.48
2022-10-28T06:14:51.303Z,13.70
2022-10-28T06:16:53.207Z,16.95
2022-10-28T06:18:55.105Z,18.13
2022-10-28T06:20:58.232Z,17.95
2022-10-28T06:23:00.153Z,15.02
2022-10-28T06:25:02.597Z,15.07
2022-10-28T06:27:07.456Z,20.23
2022-10-28T06:29:10.018Z,16.30
2022-10-28T06:31:17.449Z,17.35
2022-10-28T06:33:22.436Z,18.23
2022-10-28T06:35:24.893Z,17.63
2022-10-28T06:37:28.293Z,21.02
2022-10-28T06:39:30.067Z,17.00
2022-10-28T06:41:32.127Z,14.25
2022-10-28T06:43:34.195Z,11.43
2022-10-28T06:45:35.997Z,12.45
2022-10-28T06:47:41.510Z,11.55
2022-10-28T06:49:43.794Z,11.75
2022-10-28T06:51:45.585Z,11.77
2022-10-28T06:53:51.743Z,11.98
2022-10-28T06:55:58.560Z,18.55
2022-10-28T06:58:02.113Z,12.30
2022-10-28T07:00:04.906Z,11.32
2022-10-28T07:02:06.986Z,14.27
2022-10-28T07:04:12.921Z,15.98
2022-10-28T07:06:16.780Z,15.93
2022-10-28T07:08:19.079Z,13.68
2022-10-28T07:10:21.104Z,10.50
2022-10-28T07:12:23.050Z,12.32
2022-10-28T07:14:24.968Z,11.25
2022-10-28T07:16:26.827Z,10.70
2022-10-28T07:18:30.058Z,9.50
2022-10-28T07:20:33.049Z,10.57
2022-10-28T07:22:34.872Z,15.05
2022-10-28T07:24:36.624Z,11.38
2022-10-28T07:26:39.112Z,13.77
2022-10-28T07:28:42.927Z,18.60
2022-10-28T07:30:45.005Z,10.48
2022-10-28T07:32:46.844Z,10.48
2022-10-28T07:34:49.063Z,8.10
2022-10-28T07:36:55.106Z,9.77
2022-10-28T07:38:59.923Z,6.15
2022-10-28T07:41:09.588Z,10.68
2022-10-28T07:43:11.643Z,10.20
2022-10-28T07:45:13.971Z,7.35
2022-10-28T07:47:17.822Z,11.13
2022-10-28T07:49:19.780Z,11.05
2022-10-28T07:51:21.923Z,7.75
2022-10-28T07:53:26.313Z,5.85
2022-10-28T07:55:30.770Z,9.15
2022-10-28T07:57:44.966Z,5.97
2022-10-28T07:59:46.806Z,8.25
2022-10-28T08:01:49.047Z,8.40
2022-10-28T08:03:51.292Z,7.25
2022-10-28T08:06:01.492Z,5.18
2022-10-28T08:08:03.727Z,5.15
2022-10-28T08:10:09.262Z,6.53
2022-10-28T08:12:40.002Z,4.38
2022-10-28T08:14:42.290Z,7.45
2022-10-28T08:16:45.501Z,5.70
2022-10-28T08:18:47.814Z,8.43
2022-10-28T08:20:50.074Z,6.63
2022-10-28T08:22:52.525Z,7.47
2022-10-28T08:24:54.911Z,7.20
2022-10-28T08:26:57.205Z,8.30
2022-10-28T08:29:01.643Z,5.72
2022-10-28T08:31:09.687Z,6.45
2022-10-28T08:33:12.383Z,9.32
2022-10-28T08:35:14.481Z,9.13
2022-10-28T08:37:16.584Z,6.53
2022-10-28T08:39:18.582Z,6.70
2022-10-28T08:41:59.267Z,8.27
2022-10-28T08:44:19.875Z,7.95
2022-10-28T08:46:32.493Z,6.25
2022-10-28T08:48:36.923Z,12.32
2022-10-28T08:50:48.293Z,10.60
2022-10-28T08:53:18.047Z,8.20
2022-10-28T08:55:46.286Z,9.05
2022-10-28T08:57:55.828Z,11.15
2022-10-28T09:00:00.121Z,10.02
2022-10-28T09:02:26.217Z,9.68
2022-10-28T09:04:38.836Z,13.88
2022-10-28T09:06:40.721Z,10.77
2022-10-28T09:08:46.817Z,9.50
2022-10-28T09:11:21.312Z,9.68
2022-10-28T09:14:19.811Z,9.88
2022-10-28T09:16:47.013Z,8.52
2022-10-28T09:18:56.656Z,11.50
2022-10-28T09:21:05.228Z,9.80
2022-10-28T09:23:22.601Z,12.93
2022-10-28T09:25:58.938Z,10.38
2022-10-28T09:28:19.033Z,10.70
2022-10-28T09:30:45.275Z,11.93
2022-10-28T09:33:04.255Z,10.20
2022-10-28T09:35:14.169Z,10.13
2022-10-28T09:37:31.056Z,8.93
2022-10-28T09:39:41.970Z,9.90
2022-10-28T09:41:46.033Z,10.10
2022-10-28T09:44:04.822Z,11.25
2022-10-28T09:46:23.997Z,8.32
2022-10-28T09:48:33.199Z,10.50
2022-10-28T09:51:02.633Z,11.20
2022-10-28T09:53:33.716Z,10.13
2022-10-28T09:56:03.881Z,9.13
2022-10-28T09:58:06.037Z,11.85
2022-10-28T10:00:14.910Z,10.85
2022-10-28T10:02:28.366Z,10.98
2022-10-28T10:04:35.882Z,10.98
2022-10-28T10:06:40.246Z,10.07
2022-10-28T10:09:36.645Z,11.60
2022-10-28T10:11:45.110Z,10.75
2022-10-28T10:13:47.696Z,8.63
2022-10-28T10:15:55.268Z,9.50
2022-10-28T10:18:00.514Z,11.38
2022-10-28T10:20:05.126Z,11.38
2022-10-28T10:22:07.107Z,12.10
2022-10-28T10:24:31.047Z,14.85
2022-10-28T10:26:33.554Z,14.60
2022-10-28T10:28:47.989Z,10.63
2022-10-28T10:30:53.494Z,12.15
2022-10-28T10:32:56.752Z,8.25
2022-10-28T10:35:04.448Z,11.27
2022-10-28T10:37:18.947Z,9.80
2022-10-28T10:39:26.949Z,23.52
2022-10-28T10:41:42.206Z,29.02
2022-10-28T10:43:44.367Z,31.23
2022-10-28T10:46:03.230Z,16.63
2022-10-28T10:48:13.283Z,11.98
2022-10-28T10:52:51.341Z,15.57
2022-10-28T10:55:23.949Z,16.83
2022-10-28T10:57:26.704Z,18.67
2022-10-28T10:59:31.577Z,14.57
2022-10-28T11:01:37.073Z,11.38
2022-10-28T11:03:49.561Z,16.25
2022-10-28T11:06:30.894Z,11.95
2022-10-28T11:08:35.644Z,9.73
2022-10-28T11:10:37.804Z,11.02
2022-10-28T11:12:52.716Z,9.20
2022-10-28T11:15:16.965Z,13.02
2022-10-28T11:17:28.554Z,9.93
2022-10-28T11:19:38.052Z,7.43
2022-10-28T11:21:57.436Z,14.93
2022-10-28T11:24:21.296Z,12.15
2022-10-28T11:26:25.212Z,10.55
2022-10-28T11:28:54.902Z,14.48
2022-10-28T11:31:49.484Z,13.18
2022-10-28T11:34:19.247Z,11.27
2022-10-28T11:36:50.651Z,11.25
2022-10-28T11:38:55.783Z,9.77
2022-10-28T11:41:18.035Z,16.65
2022-10-28T11:43:33.523Z,14.20
2022-10-28T11:45:48.601Z,14.45
2022-10-28T11:48:14.073Z,15.43
2022-10-28T11:50:24.976Z,15.50
2022-10-28T11:52:33.252Z,14.50
2022-10-28T11:55:14.631Z,14.45
2022-10-28T11:57:24.320Z,11.18
2022-10-28T11:59:50.232Z,10.95
2022-10-28T12:01:58.592Z,10.90
2022-10-28T12:04:33.041Z,13.23
2022-10-28T12:06:56.315Z,16.20
2022-10-28T12:09:01.378Z,16.73
2022-10-28T12:11:38.492Z,18.90
2022-10-28T12:13:45.803Z,33.17
2022-10-28T12:16:15.753Z,27.67
2022-10-28T12:18:33.816Z,27.15
2022-10-28T12:21:08.576Z,23.17
2022-10-28T12:23:18.473Z,18.20
2022-10-28T12:25:27.801Z,15.82
2022-10-28T12:27:38.327Z,13.90
2022-10-28T12:29:46.218Z,14.50
2022-10-28T12:31:54.180Z,14.70
2022-10-28T12:33:59.792Z,15.93
2022-10-28T12:36:24.896Z,16.20
2022-10-28T12:38:43.067Z,15.57
2022-10-28T12:40:51.248Z,19.48
2022-10-28T12:43:08.273Z,17.90
2022-10-28T12:45:19.388Z,20.10
2022-10-28T12:47:31.316Z,18.17
2022-10-28T12:50:12.412Z,15.77
2022-10-28T12:52:25.004Z,21.83
2022-10-28T12:54:42.270Z,20.23
2022-10-28T12:56:57.196Z,23.10
2022-10-28T12:59:11.925Z,19.67
2022-10-28T13:01:18.389Z,19.55
2022-10-28T13:03:21.625Z,21.33
2022-10-28T13:05:31.877Z,19.63
2022-10-28T13:07:58.647Z,19.42
2022-10-28T13:10:18.259Z,18.90
2022-10-28T13:12:45.132Z,17.70
2022-10-28T13:15:12.916Z,19.42
2022-10-28T13:17:42.654Z,17.55
2022-10-28T13:20:37.527Z,20.40
2022-10-28T13:22:48.969Z,17.13
2022-10-28T13:25:03.149Z,19.17
2022-10-28T13:27:06.222Z,14.85
2022-10-28T13:29:20.646Z,16.67
2022-10-28T13:31:25.281Z,15.40
2022-10-28T13:33:29.860Z,15.85
2022-10-28T13:35:33.054Z,17.58
2022-10-28T13:37:36.949Z,15.70
2022-10-28T13:39:42.076Z,13.80
2022-10-28T13:41:47.895Z,13.52
2022-10-28T13:47:45.145Z,17.52
2022-10-28T13:50:09.081Z,14.38
2022-10-28T13:52:11.646Z,14.82
2022-10-28T13:54:30.493Z,14.60
2022-10-28T13:56:46.768Z,12.85
2022-10-28T13:58:53.863Z,14.43
2022-10-28T14:01:37.176Z,15.00
2022-10-28T14:03:39.402Z,11.98
2022-10-28T14:05:44.562Z,14.05
2022-10-28T14:07:56.208Z,12.82
2022-10-28T14:10:25.237Z,12.73
2022-10-28T14:12:32.885Z,15.43
2022-10-28T14:14:35.323Z,14.70
2022-10-28T14:16:39.525Z,14.10
2022-10-28T14:18:44.813Z,12.15
2022-10-28T14:20:47.513Z,14.30
2022-10-28T14:22:51.280Z,14.10
2022-10-28T14:24:53.818Z,14.00
2022-10-28T14:27:12.604Z,15.65
2022-10-28T14:29:28.047Z,20.88
2022-10-28T14:31:38.431Z,19.40
2022-10-28T14:33:43.594Z,20.17
2022-10-28T14:35:48.198Z,19.08
2022-10-28T14:38:04.012Z,18.92
2022-10-28T14:40:19.761Z,18.52
2022-10-28T14:42:46.753Z,21.42
2022-10-28T14:44:59.521Z,20.45
2022-10-28T14:47:20.142Z,22.38
2022-10-28T14:49:29.067Z,17.65
2022-10-28T14:51:39.563Z,21.40
2022-10-28T14:53:43.623Z,17.52
2022-10-28T14:55:57.679Z,17.02
2022-10-28T14:58:27.637Z,17.20
2022-10-28T15:00:29.938Z,15.20
2022-10-28T15:02:34.588Z,14.90
2022-10-28T15:04:39.481Z,16.88
2022-10-28T15:06:46.090Z,15.80
2022-10-28T15:08:48.490Z,17.52
2022-10-28T15:10:50.744Z,14.35
2022-10-28T15:12:55.234Z,16.35
2022-10-28T15:14:58.933Z,15.05
2022-10-28T15:17:16.161Z,16.02
2022-10-28T15:19:22.660Z,16.52
2022-10-28T15:21:24.832Z,15.60
2022-10-28T15:23:26.986Z,17.38
2022-10-28T15:25:29.892Z,20.88
2022-10-28T15:27:38.312Z,31.88
2022-10-28T15:29:42.603Z,25.92
2022-10-28T15:32:16.432Z,34.50
2022-10-28T15:34:21.618Z,45.80
2022-10-28T15:36:25.461Z,41.78
2022-10-28T15:38:40.605Z,54.83
2022-10-28T15:40:42.845Z,54.53
2022-10-28T15:43:21.111Z,53.45
2022-10-28T15:45:29.240Z,55.53
2022-10-28T15:47:36.038Z,49.10
2022-10-28T15:49:40.671Z,43.40
2022-10-28T15:51:42.862Z,44.92
2022-10-28T15:53:54.262Z,44.70
2022-10-28T15:56:29.705Z,49.30
2022-10-28T15:58:54.288Z,41.70
2022-10-28T16:00:58.589Z,41.97
2022-10-28T16:03:07.907Z,39.83
2022-10-28T16:05:33.180Z,45.33
2022-10-28T16:07:35.019Z,44.65
2022-10-28T16:09:44.164Z,43.45
2022-10-28T16:11:50.311Z,42.42
2022-10-28T16:13:52.792Z,35.55
2022-10-28T16:15:58.586Z,36.83
2022-10-28T16:18:02.059Z,37.28
2022-10-28T16:20:18.949Z,32.40
2022-10-28T16:22:25.834Z,32.20
2022-10-28T16:24:27.845Z,32.58
2022-10-28T16:26:32.635Z,33.83
2022-10-28T16:28:34.718Z,27.73
2022-10-28T16:30:36.827Z,29.02
2022-10-28T16:32:50.005Z,28.25
2022-10-28T16:34:52.010Z,26.00
2022-10-28T16:36:54.115Z,26.50
2022-10-28T16:38:56.395Z,26.63
2022-10-28T16:41:00.400Z,27.30
2022-10-28T16:43:02.572Z,31.48
2022-10-28T16:45:13.270Z,47.35
2022-10-28T16:47:18.072Z,55.13
2022-10-28T16:49:20.040Z,49.65
2022-10-28T16:51:22.006Z,55.28
2022-10-28T16:53:24.393Z,48.67
2022-10-28T16:55:27.724Z,41.30
2022-10-28T16:57:29.922Z,35.95
2022-10-28T16:59:32.080Z,32.25
2022-10-28T17:01:34.590Z,32.65
2022-10-28T17:03:36.642Z,32.78
2022-10-28T17:06:28.982Z,31.00
2022-10-28T17:09:00.846Z,33.00
2022-10-28T17:10:53.534Z,33.80
2022-10-28T17:12:56.395Z,30.15
2022-10-28T17:14:58.833Z,27.27
2022-10-28T17:17:00.854Z,32.85
2022-10-28T17:19:03.410Z,27.70
2022-10-28T17:21:05.762Z,30.92
2022-10-28T17:23:08.108Z,33.08
2022-10-28T17:25:10.755Z,29.50
2022-10-28T17:27:13.482Z,26.33
2022-10-28T17:29:15.521Z,29.65
2022-10-28T17:31:20.597Z,25.05
2022-10-28T17:33:26.215Z,28.85
2022-10-28T17:35:28.277Z,29.73
2022-10-28T17:37:34.472Z,31.42
2022-10-28T17:39:37.979Z,28.13
2022-10-28T17:41:40.007Z,28.02
2022-10-28T17:43:42.603Z,29.08
2022-10-28T17:45:44.661Z,31.45
2022-10-28T17:47:47.241Z,38.55
2022-10-28T17:49:49.238Z,50.47
2022-10-28T17:51:51.999Z,49.03
2022-10-28T17:53:55.753Z,46.75
2022-10-28T17:55:58.569Z,48.42
2022-10-28T17:58:00.404Z,53.45
2022-10-28T18:00:02.296Z,51.60
2022-10-28T18:02:14.672Z,53.97
2022-10-28T18:04:17.350Z,56.58
2022-10-28T18:06:19.229Z,54.40
2022-10-28T18:08:22.312Z,52.92
2022-10-28T18:10:24.322Z,48.78
2022-10-28T18:12:26.194Z,47.80
2022-10-28T18:14:28.679Z,48.25
2022-10-28T18:16:30.524Z,51.83
2022-10-28T18:18:32.629Z,55.80
2022-10-28T18:20:34.541Z,51.85
2022-10-28T18:22:36.485Z,55.47
2022-10-28T18:24:38.663Z,53.35
2022-10-28T18:26:41.443Z,54.42
2022-10-28T18:28:45.214Z,53.75
2022-10-28T18:30:47.109Z,55.88
2022-10-28T18:32:49.225Z,55.88
2022-10-28T18:34:51.407Z,54.90
2022-10-28T18:36:54.123Z,60.35
2022-10-28T18:38:58.546Z,55.15
2022-10-28T18:41:00.711Z,70.80
2022-10-28T18:43:02.720Z,79.45
2022-10-28T18:45:05.705Z,108.85
2022-10-28T18:47:07.720Z,90.35
2022-10-28T18:49:09.793Z,84.75
2022-10-28T18:51:13.132Z,96.65
2022-10-28T18:53:15.077Z,86.47
2022-10-28T18:55:17.163Z,94.55
2022-10-28T18:57:19.489Z,150.90
2022-10-28T18:59:21.675Z,278.13
2022-10-28T19:01:26.739Z,243.07
2022-10-28T19:03:29.035Z,212.77
2022-10-28T19:05:32.655Z,187.73
2022-10-28T19:07:35.042Z,183.60
2022-10-28T19:09:37.022Z,219.23
2022-10-28T19:11:39.114Z,217.85
2022-10-28T19:13:44.439Z,204.32
2022-10-28T19:15:47.384Z,150.23
2022-10-28T19:17:52.249Z,98.95
2022-10-28T19:19:54.965Z,88.95
2022-10-28T19:21:57.241Z,85.78
2022-10-28T19:23:59.456Z,80.13
2022-10-28T19:26:01.516Z,59.05
2022-10-28T19:28:03.556Z,97.22
2022-10-28T19:30:09.118Z,115.22
2022-10-28T19:32:14.702Z,129.40
2022-10-28T19:34:16.682Z,187.05
2022-10-28T19:36:21.832Z,197.98
2022-10-28T19:38:23.896Z,260.10
2022-10-28T19:40:25.957Z,346.98
2022-10-28T19:46:18.104Z,190.05
2022-10-28T19:48:20.174Z,128.60
2022-10-28T19:50:22.152Z,102.57
2022-10-28T19:56:01.090Z,63.15
2022-10-28T19:58:03.391Z,55.35
2022-10-28T20:00:06.143Z,47.50
2022-10-28T20:02:13.433Z,41.35
2022-10-28T20:04:17.533Z,53.35
2022-10-28T20:06:21.908Z,90.38
2022-10-28T20:08:24.229Z,94.97
2022-10-28T20:10:26.350Z,74.93
2022-10-28T20:12:28.500Z,66.10
2022-10-28T20:14:31.993Z,55.70
2022-10-28T20:16:34.965Z,56.28
2022-10-28T20:18:37.720Z,54.28
2022-10-28T20:20:39.794Z,52.05
2022-10-28T20:22:42.563Z,45.63
2022-10-28T20:24:45.215Z,42.47
2022-10-28T20:26:47.733Z,40.60
2022-10-28T20:28:51.820Z,38.53
2022-10-28T20:31:18.904Z,43.67
2022-10-28T20:33:21.067Z,58.65
2022-10-28T20:35:23.393Z,70.35
2022-10-28T20:37:25.794Z,81.07
2022-10-28T20:39:28.130Z,81.40
2022-10-28T20:41:32.301Z,106.05
2022-10-28T20:43:34.618Z,132.43
2022-10-28T20:45:36.778Z,102.32
2022-10-28T20:47:38.967Z,75.60
2022-10-28T20:49:43.394Z,58.70
2022-10-28T20:51:45.671Z,51.60
2022-10-28T20:53:49.167Z,74.57
2022-10-28T20:55:53.254Z,65.45
2022-10-28T20:57:55.656Z,66.82
2022-10-28T20:59:57.966Z,60.63
2022-10-28T21:02:00.160Z,53.90
2022-10-28T21:04:07.270Z,44.88
2022-10-28T21:06:10.271Z,44.38
2022-10-28T21:08:12.654Z,32.58
2022-10-28T21:10:17.426Z,31.30
2022-10-28T21:12:19.574Z,29.70
2022-10-28T21:14:22.171Z,29.17
2022-10-28T21:16:26.073Z,29.25
2022-10-28T21:18:28.221Z,31.67
2022-10-28T21:20:36.391Z,32.75
2022-10-28T21:22:38.556Z,33.20
2022-10-28T21:24:40.767Z,33.22
2022-10-28T21:26:43.723Z,77.38
2022-10-28T21:28:52.256Z,86.70
2022-10-28T21:31:06.588Z,66.97
2022-10-28T21:33:08.718Z,53.35
2022-10-28T21:35:11.175Z,43.17
2022-10-28T21:37:13.460Z,44.00
2022-10-28T21:39:15.992Z,39.95
2022-10-28T21:41:19.950Z,36.40
2022-10-28T21:43:25.953Z,37.88
2022-10-28T21:45:28.248Z,34.15
2022-10-28T21:47:30.729Z,33.08
2022-10-28T21:49:32.746Z,35.58
2022-10-28T21:51:35.056Z,35.60
2022-10-28T21:53:38.365Z,40.10
2022-10-28T21:55:46.535Z,47.17
2022-10-28T21:57:49.884Z,46.65
2022-10-28T21:59:52.069Z,44.60
2022-10-28T22:01:54.761Z,39.30
2022-10-28T22:03:56.982Z,39.05
2022-10-28T22:05:59.144Z,40.85
2022-10-28T22:08:03.188Z,39.90
2022-10-28T22:10:19.053Z,35.40
2022-10-28T22:12:21.265Z,31.10
2022-10-28T22:14:23.398Z,27.23
2022-10-28T22:16:29.673Z,25.90
2022-10-28T22:18:34.415Z,22.90
2022-10-28T22:20:36.595Z,23.83
2022-10-28T22:22:38.753Z,38.88
2022-10-28T22:24:40.801Z,73.07
2022-10-28T22:26:47.941Z,67.70
2022-10-28T22:28:51.037Z,69.47
2022-10-28T22:30:59.002Z,57.10
2022-10-28T22:33:03.620Z,40.70
2022-10-28T22:35:07.228Z,32.80
2022-10-28T22:37:09.690Z,31.00
2022-10-28T22:39:11.920Z,32.60
2022-10-28T22:41:19.948Z,33.95
2022-10-28T22:43:22.220Z,33.95
2022-10-28T22:45:24.270Z,31.92
2022-10-28T22:47:26.520Z,33.15
2022-10-28T22:49:28.532Z,35.53
2022-10-28T22:51:30.882Z,32.25
2022-10-28T22:53:33.272Z,34.75
2022-10-28T22:55:35.808Z,35.35
2022-10-28T22:57:38.061Z,48.03
2022-10-28T22:59:40.031Z,29.75
2022-10-28T23:01:42.449Z,29.95
2022-10-28T23:03:52.978Z,36.58
2022-10-28T23:05:57.508Z,35.55
2022-10-28T23:08:02.574Z,34.30
2022-10-28T23:10:05.239Z,35.53
2022-10-28T23:12:07.793Z,27.63
2022-10-28T23:14:09.933Z,32.80
2022-10-28T23:16:16.450Z,33.90
2022-10-28T23:18:18.455Z,27.50
2022-10-28T23:20:25.063Z,31.63
2022-10-28T23:22:29.135Z,30.10
2022-10-28T23:24:31.094Z,28.35
2022-10-28T23:26:33.201Z,30.30
2022-10-28T23:28:35.193Z,26.85
2022-10-28T23:30:37.367Z,28.13
2022-10-28T23:32:39.807Z,31.92
2022-10-28T23:34:41.876Z,29.60
2022-10-28T23:36:43.980Z,28.95
2022-10-28T23:38:46.378Z,29.23
2022-10-28T23:41:06.031Z,28.98
2022-10-28T23:43:08.196Z,30.88
2022-10-28T23:45:12.176Z,27.75
2022-10-28T23:47:14.457Z,28.83
2022-10-28T23:49:19.350Z,28.25
2022-10-28T23:51:21.453Z,28.83
2022-10-28T23:53:24.646Z,30.42
2022-10-28T23:55:26.924Z,29.10
2022-10-28T23:57:29.096Z,30.52
2022-10-28T23:59:31.281Z,30.83
